»·PEaware :: N364CM KSBA-KBUR

N364CM :: KSBA-KBUR

FLIGHT INFORMATION

Flight Status: Arrived
Operator: Privately registered:
United States
More flights under this callsign
Pilot: Brian S. (32023)
Aircraft: CESSNA 172 SKYHAWK
(C172)
More flights by this aircraft type
Origin: KSBA Santa Barbara Mun
United States
Destination: KBUR Bob Hope-Burbank
United States
More flights between these airports :: More routes between these airports
Route:
File this flight plan on PilotEdge
Remarks:
Altitude:
(Current/Filed)
1,500ft
Speed:
(Current/Filed)
135kts
Departed: 13-Jan-21 05:21 PM
Arrived: 13-Jan-21 06:09 PM
Distance/Time
Traveled:
75nm/0:48
Distance/Time
To Go:
Arrived

Flight Plot

Page will automatically refresh every two minutes.


Map Options




Map Legend


Flown Route
Filed Route
Departure Airport
Arrival Airport
Navaid (VOR, NDB)
Fix

Horizontal Profiles

Position Reports

Time Latitude Longitude Heading Altitude Ground
Speed
13-Jan-21 17:16 34.422847 -119.836391 282 14ft 9kts
13-Jan-21 17:17 34.425728 -119.838057 345 12ft 12kts
13-Jan-21 17:18 34.426750 -119.836161 90 13ft 6kts
13-Jan-21 17:19 34.426982 -119.834643 5 12ft 0kts
13-Jan-21 17:20 34.427813 -119.840297 268 43ft 64kts
13-Jan-21 17:21 34.427465 -119.864205 268 976ft 71kts
13-Jan-21 17:22 34.427022 -119.893021 268 1295ft 106kts
13-Jan-21 17:23 34.426503 -119.930929 268 1289ft 115kts
13-Jan-21 17:24 34.410073 -119.946925 124 1716ft 85kts
13-Jan-21 17:25 34.406603 -119.919523 95 2237ft 82kts
13-Jan-21 17:26 34.404216 -119.891694 95 2718ft 83kts
13-Jan-21 17:27 34.401814 -119.863677 95 3188ft 84kts
13-Jan-21 17:28 34.399032 -119.831394 95 3293ft 110kts
13-Jan-21 17:29 34.395691 -119.792801 95 3289ft 117kts
13-Jan-21 17:30 34.392300 -119.753576 95 3289ft 117kts
13-Jan-21 17:31 34.388914 -119.714352 95 3289ft 117kts
13-Jan-21 17:32 34.385523 -119.675012 95 3289ft 117kts
13-Jan-21 17:33 34.382135 -119.635642 95 3289ft 117kts
13-Jan-21 17:34 34.378766 -119.596434 95 3289ft 117kts
13-Jan-21 17:36 34.375386 -119.557039 95 3289ft 117kts
13-Jan-21 17:37 34.372021 -119.517758 95 3289ft 117kts
13-Jan-21 17:38 34.368659 -119.478450 95 3289ft 117kts
13-Jan-21 17:39 34.364469 -119.439274 98 3289ft 117kts
13-Jan-21 17:40 34.359110 -119.400291 99 3289ft 117kts
13-Jan-21 17:41 34.353091 -119.361497 98 3289ft 117kts
13-Jan-21 17:42 34.347629 -119.322542 99 3289ft 117kts
13-Jan-21 17:43 34.341929 -119.283585 100 3289ft 117kts
13-Jan-21 17:44 34.336174 -119.244765 100 3289ft 117kts
13-Jan-21 17:45 34.330374 -119.205843 100 3289ft 117kts
13-Jan-21 17:46 34.324570 -119.167013 100 3289ft 117kts
13-Jan-21 17:47 34.318737 -119.128087 100 3280ft 117kts
13-Jan-21 17:48 34.312881 -119.089097 100 3280ft 117kts
13-Jan-21 17:49 34.307023 -119.050177 100 3280ft 117kts
13-Jan-21 17:50 34.301164 -119.011341 100 3280ft 117kts
13-Jan-21 17:51 34.295281 -118.972427 100 3280ft 117kts
13-Jan-21 17:52 34.289404 -118.933679 100 3280ft 117kts
13-Jan-21 17:53 34.283473 -118.894741 100 3280ft 117kts
13-Jan-21 17:53 34.278533 -118.862288 100 3280ft 117kts
13-Jan-21 17:55 34.271619 -118.816961 100 3280ft 117kts
13-Jan-21 17:55 34.266678 -118.784633 100 3280ft 117kts
13-Jan-21 17:57 34.259745 -118.739379 100 3280ft 117kts
13-Jan-21 17:57 34.254775 -118.707004 100 3280ft 117kts
13-Jan-21 17:58 34.248785 -118.668072 100 3280ft 117kts
13-Jan-21 17:59 34.242930 -118.629188 99 3280ft 117kts
13-Jan-21 18:00 34.237163 -118.590379 99 3280ft 117kts
13-Jan-21 18:01 34.228825 -118.552442 117 3280ft 117kts
13-Jan-21 18:02 34.213407 -118.517607 117 3280ft 117kts
13-Jan-21 18:03 34.199774 -118.482232 95 3281ft 117kts
13-Jan-21 18:04 34.198668 -118.447007 91 2270ft 96kts
13-Jan-21 18:05 34.198628 -118.422651 90 1639ft 60kts
13-Jan-21 18:06 34.198349 -118.401508 90 1298ft 64kts
13-Jan-21 18:07 34.198057 -118.379732 90 947ft 60kts
13-Jan-21 18:08 34.197811 -118.362214 90 723ft 28kts
13-Jan-21 18:09 34.198555 -118.360240 0 723ft 0kts
13-Jan-21 18:10 34.199574 -118.358437 294 722ft 12kts
13-Jan-21 18:11 34.199466 -118.359238 342 723ft 0kts

Navigation Log

Ident Type
Flight plan parsing failed, navigation log unavailable